createdAt,value
2022-07-28T00:00:00.281Z,0.11944444444444444
2022-07-28T00:01:06.469Z,0
2022-07-28T00:02:01.315Z,0.15833333333333333
2022-07-28T00:03:01.217Z,0
2022-07-28T00:04:00.973Z,0
2022-07-28T00:05:00.748Z,0
2022-07-28T00:06:09.700Z,0
2022-07-28T00:07:00.891Z,0
2022-07-28T00:08:00.882Z,0
2022-07-28T00:09:00.519Z,0
2022-07-28T00:10:01.289Z,0
2022-07-28T00:11:10.542Z,0
2022-07-28T00:12:00.555Z,0.03888888888888889
2022-07-28T00:13:00.216Z,0
2022-07-28T00:13:59.962Z,0.11944444444444444
2022-07-28T00:14:59.705Z,0
2022-07-28T00:16:13.683Z,0.09722222222222221
2022-07-28T00:17:01.173Z,0.31666666666666665
2022-07-28T00:18:00.868Z,0
2022-07-28T00:19:01.098Z,0
2022-07-28T00:20:00.508Z,0
2022-07-28T00:21:00.175Z,0
2022-07-28T00:21:59.865Z,0
2022-07-28T00:22:59.583Z,0.19999999999999998
2022-07-28T00:24:01.401Z,0.036111111111111115
2022-07-28T00:25:01.190Z,0.08055555555555555
2022-07-28T00:26:00.921Z,0
2022-07-28T00:27:00.603Z,0.21944444444444444
2022-07-28T00:28:00.254Z,0.3972222222222222
2022-07-28T00:29:00.022Z,0.24722222222222223
2022-07-28T00:29:59.702Z,0.07222222222222223
2022-07-28T00:31:06.150Z,0.08055555555555555
2022-07-28T00:32:02.371Z,0.13333333333333333
2022-07-28T00:33:00.583Z,0
2022-07-28T00:34:00.241Z,0.31666666666666665
2022-07-28T00:34:59.852Z,0.30833333333333335
2022-07-28T00:35:59.756Z,0.06944444444444445
2022-07-28T00:37:02.435Z,0
2022-07-28T00:38:01.138Z,0
2022-07-28T00:39:00.993Z,0
2022-07-28T00:40:01.141Z,0
2022-07-28T00:41:01.189Z,0
2022-07-28T00:42:00.853Z,0
2022-07-28T00:43:01.534Z,0
2022-07-28T00:44:00.682Z,0
2022-07-28T00:45:01.315Z,0
2022-07-28T00:46:00.987Z,0
2022-07-28T00:47:00.668Z,0
2022-07-28T00:48:00.340Z,0
2022-07-28T00:49:00.185Z,0
2022-07-28T00:49:59.882Z,0
2022-07-28T00:50:59.547Z,0
2022-07-28T00:52:02.224Z,0.03888888888888889
2022-07-28T00:53:01.637Z,0.05833333333333333
2022-07-28T00:54:03.032Z,0.19722222222222222
2022-07-28T00:55:01.319Z,0.15833333333333333
2022-07-28T00:56:04.084Z,0
2022-07-28T00:57:01.326Z,0.019444444444444445
2022-07-28T00:58:00.618Z,0
2022-07-28T00:59:00.833Z,0
2022-07-28T01:00:00.529Z,0.08055555555555555
2022-07-28T01:01:00.132Z,0
2022-07-28T01:01:59.987Z,0
2022-07-28T01:02:59.927Z,0.15833333333333333
2022-07-28T01:04:01.045Z,0
2022-07-28T01:05:00.755Z,0
2022-07-28T01:06:00.402Z,0
2022-07-28T01:07:00.037Z,0
2022-07-28T01:07:59.863Z,0
2022-07-28T01:08:59.578Z,0.5555555555555556
2022-07-28T01:10:01.243Z,0.4666666666666666
2022-07-28T01:11:01.118Z,0.31666666666666665
2022-07-28T01:12:01.713Z,0
2022-07-28T01:13:00.973Z,0
2022-07-28T01:14:00.941Z,0.31666666666666665
2022-07-28T01:15:00.959Z,0.08055555555555555
2022-07-28T01:16:00.931Z,0
2022-07-28T01:17:01.216Z,0.10833333333333334
2022-07-28T01:18:00.966Z,0.036111111111111115
2022-07-28T01:19:01.101Z,0.03888888888888889
2022-07-28T01:20:00.711Z,0
2022-07-28T01:21:00.566Z,0
2022-07-28T01:22:00.881Z,0
2022-07-28T01:23:00.630Z,0
2022-07-28T01:24:00.376Z,0
2022-07-28T01:25:00.091Z,0
2022-07-28T01:25:59.785Z,0
2022-07-28T01:27:02.235Z,0
2022-07-28T01:28:02.012Z,0
2022-07-28T01:29:01.009Z,0.019444444444444445
2022-07-28T01:30:01.862Z,0
2022-07-28T01:31:00.768Z,0
2022-07-28T01:32:00.516Z,0
2022-07-28T01:33:00.172Z,0
2022-07-28T01:34:00.315Z,0
2022-07-28T01:35:00.163Z,0.11944444444444444
2022-07-28T01:35:59.952Z,0.03888888888888889
2022-07-28T01:36:59.636Z,0.049999999999999996
2022-07-28T01:38:01.377Z,0
2022-07-28T01:39:01.084Z,0
2022-07-28T01:40:00.877Z,0
2022-07-28T01:41:00.717Z,0
2022-07-28T01:42:00.589Z,0
2022-07-28T01:43:00.220Z,0
2022-07-28T01:43:59.860Z,0
2022-07-28T01:45:02.646Z,0
2022-07-28T01:46:00.999Z,0
2022-07-28T01:47:00.729Z,0
2022-07-28T01:48:00.426Z,0
2022-07-28T01:49:00.212Z,0
2022-07-28T01:49:59.922Z,0
2022-07-28T01:50:59.730Z,0
2022-07-28T01:52:01.466Z,0
2022-07-28T01:53:01.527Z,0
2022-07-28T01:54:02.410Z,0
2022-07-28T01:55:01.290Z,0
2022-07-28T01:56:00.993Z,0
2022-07-28T01:57:00.687Z,0
2022-07-28T01:58:00.498Z,0
2022-07-28T01:59:00.194Z,0
2022-07-28T01:59:59.840Z,0
2022-07-28T02:01:01.653Z,0
2022-07-28T02:02:00.961Z,0
2022-07-28T02:03:00.724Z,0
2022-07-28T02:04:00.366Z,0
2022-07-28T02:05:00.213Z,0
2022-07-28T02:06:00.057Z,0
2022-07-28T02:07:04.418Z,0
2022-07-28T02:08:00.875Z,0
2022-07-28T02:09:00.569Z,0
2022-07-28T02:10:00.342Z,0
2022-07-28T02:11:00.109Z,0
2022-07-28T02:12:05.267Z,0
2022-07-28T02:13:01.131Z,0
2022-07-28T02:14:00.898Z,0
2022-07-28T02:15:00.606Z,0
2022-07-28T02:16:00.334Z,0
2022-07-28T02:17:06.704Z,0
2022-07-28T02:18:01.216Z,0
2022-07-28T02:19:00.935Z,0
2022-07-28T02:20:00.642Z,0
2022-07-28T02:21:00.346Z,0
2022-07-28T02:22:09.887Z,0
2022-07-28T02:23:01.065Z,0
2022-07-28T02:24:00.559Z,0
2022-07-28T02:25:00.285Z,0
2022-07-28T02:26:00.664Z,0
2022-07-28T02:27:12.340Z,0
2022-07-28T02:28:01.403Z,0
2022-07-28T02:29:01.013Z,0
2022-07-28T02:30:00.777Z,0
2022-07-28T02:31:00.617Z,0
2022-07-28T02:32:00.314Z,0
2022-07-28T02:33:02.325Z,0
2022-07-28T02:34:02.196Z,0
2022-07-28T02:35:02.177Z,0
2022-07-28T02:36:01.160Z,0
2022-07-28T02:37:00.850Z,0
2022-07-28T02:38:01.103Z,0
2022-07-28T02:39:01.305Z,0
2022-07-28T02:40:01.025Z,0
2022-07-28T02:41:00.899Z,0
2022-07-28T02:42:00.578Z,0
2022-07-28T02:43:00.426Z,0
2022-07-28T02:44:00.201Z,0
2022-07-28T02:44:59.883Z,0
2022-07-28T02:45:59.641Z,0
2022-07-28T02:47:02.694Z,0
2022-07-28T02:48:03.073Z,0
2022-07-28T02:49:02.653Z,0
2022-07-28T02:50:01.618Z,0
2022-07-28T02:51:01.503Z,0
2022-07-28T02:52:01.042Z,0
2022-07-28T02:53:00.966Z,0
2022-07-28T02:54:00.964Z,0
2022-07-28T02:55:00.631Z,0
2022-07-28T02:56:00.266Z,0
2022-07-28T02:56:59.909Z,0
2022-07-28T02:57:59.872Z,0
2022-07-28T02:58:59.880Z,0
2022-07-28T02:59:59.565Z,0
2022-07-28T03:01:02.847Z,0
2022-07-28T03:02:03.468Z,0
2022-07-28T03:03:00.711Z,0
2022-07-28T03:04:00.338Z,0
2022-07-28T03:05:00.072Z,0
2022-07-28T03:05:59.920Z,0
2022-07-28T03:06:59.566Z,0
2022-07-28T03:08:01.410Z,0
2022-07-28T03:09:01.169Z,0
2022-07-28T03:10:02.323Z,0
2022-07-28T03:11:00.990Z,0
2022-07-28T03:12:00.597Z,0
2022-07-28T03:13:00.495Z,0
2022-07-28T03:14:00.164Z,0
2022-07-28T03:15:02.245Z,0
2022-07-28T03:16:01.453Z,0
2022-07-28T03:17:01.156Z,0
2022-07-28T03:18:01.152Z,0
2022-07-28T03:19:00.915Z,0
2022-07-28T03:20:00.560Z,0
2022-07-28T03:21:00.236Z,0
2022-07-28T03:22:00.131Z,0
2022-07-28T03:22:59.818Z,0
2022-07-28T03:24:02.223Z,0
2022-07-28T03:25:02.443Z,0
2022-07-28T03:26:00.860Z,0
2022-07-28T03:27:00.575Z,0
2022-07-28T03:28:00.231Z,0
2022-07-28T03:28:59.967Z,0
2022-07-28T03:30:03.574Z,0
2022-07-28T03:31:00.923Z,0
2022-07-28T03:32:00.622Z,0
2022-07-28T03:33:00.425Z,0
2022-07-28T03:34:00.048Z,0
2022-07-28T03:35:00.724Z,0
2022-07-28T03:36:00.437Z,0
2022-07-28T03:37:00.111Z,0
2022-07-28T03:37:59.810Z,0
2022-07-28T03:39:01.565Z,0
2022-07-28T03:40:02.495Z,0
2022-07-28T03:41:02.155Z,0
2022-07-28T03:42:00.623Z,0
2022-07-28T03:43:00.278Z,0
2022-07-28T03:43:59.917Z,0
2022-07-28T03:44:59.572Z,0
2022-07-28T03:46:02.730Z,0
2022-07-28T03:47:00.912Z,0
2022-07-28T03:48:00.603Z,0
2022-07-28T03:49:00.385Z,0
2022-07-28T03:50:00.102Z,0
2022-07-28T03:51:00.626Z,0
2022-07-28T03:52:00.344Z,0
2022-07-28T03:53:00.021Z,0
2022-07-28T03:53:59.718Z,0.35833333333333334
2022-07-28T03:55:02.310Z,0.11944444444444444
2022-07-28T03:56:01.905Z,0.17777777777777778
2022-07-28T03:57:01.743Z,0.47777777777777775
2022-07-28T03:58:00.644Z,0.5388888888888889
2022-07-28T03:59:00.370Z,0.31666666666666665
2022-07-28T04:00:00.137Z,0.35833333333333334
2022-07-28T04:01:00.242Z,0.15833333333333333
2022-07-28T04:02:00.228Z,0.15833333333333333
2022-07-28T04:02:59.992Z,0
2022-07-28T04:03:59.711Z,0
2022-07-28T04:05:02.843Z,0.2638888888888889
2022-07-28T04:06:00.772Z,0.03888888888888889
2022-07-28T04:07:00.817Z,0.08055555555555555
2022-07-28T04:08:01.557Z,0.19999999999999998
2022-07-28T04:09:02.215Z,0
2022-07-28T04:10:01.592Z,0
2022-07-28T04:11:01.836Z,0
2022-07-28T04:12:00.664Z,0.31666666666666665
2022-07-28T04:13:01.590Z,0.19999999999999998
2022-07-28T04:14:00.562Z,0.11944444444444444
2022-07-28T04:15:00.282Z,0.19999999999999998
2022-07-28T04:16:00.059Z,0.15833333333333333
2022-07-28T04:16:59.889Z,0.20277777777777778
2022-07-28T04:18:06.547Z,0.08055555555555555
2022-07-28T04:19:00.677Z,0.5166666666666667
2022-07-28T04:20:00.406Z,0.3972222222222222
2022-07-28T04:21:00.102Z,0.31666666666666665
2022-07-28T04:21:59.801Z,0.24166666666666667
2022-07-28T04:23:10.866Z,0.1361111111111111
2022-07-28T04:24:02.966Z,0.19722222222222222
2022-07-28T04:25:01.569Z,0.05833333333333333
2022-07-28T04:26:01.629Z,0.31666666666666665
2022-07-28T04:27:00.971Z,0.23888888888888887
2022-07-28T04:28:14.949Z,0.19999999999999998
2022-07-28T04:29:03.345Z,0.15833333333333333
2022-07-28T04:30:00.887Z,0
2022-07-28T04:31:00.795Z,0
2022-07-28T04:32:00.580Z,0.31666666666666665
2022-07-28T04:33:00.291Z,0.19999999999999998
2022-07-28T04:34:00.024Z,0.4361111111111111
2022-07-28T04:34:59.798Z,0.3
2022-07-28T04:36:02.572Z,0.11944444444444444
2022-07-28T04:37:00.748Z,0.35833333333333334
2022-07-28T04:38:00.448Z,0.2777777777777778
2022-07-28T04:39:00.097Z,0.2777777777777778
2022-07-28T04:40:00.211Z,0.10277777777777777
2022-07-28T04:41:00.027Z,0.19999999999999998
2022-07-28T04:42:00.785Z,0.03333333333333333
2022-07-28T04:43:00.558Z,0
2022-07-28T04:44:00.249Z,0.08055555555555555
2022-07-28T04:45:00.055Z,0
2022-07-28T04:46:00.654Z,0.19999999999999998
2022-07-28T04:47:00.395Z,0.15833333333333333
2022-07-28T04:48:00.033Z,0.11944444444444444
2022-07-28T04:48:59.907Z,0.19999999999999998
2022-07-28T04:49:59.638Z,0.15833333333333333
2022-07-28T04:51:01.431Z,0.19999999999999998
2022-07-28T04:52:01.160Z,0.23055555555555554
2022-07-28T04:53:00.835Z,0.19999999999999998
2022-07-28T04:54:00.691Z,0.15833333333333333
2022-07-28T04:55:00.462Z,0.15833333333333333
2022-07-28T04:56:00.228Z,0
2022-07-28T04:57:00.623Z,0
2022-07-28T04:58:01.155Z,0
2022-07-28T04:59:00.852Z,0
2022-07-28T05:00:00.866Z,0.19999999999999998
2022-07-28T05:01:00.821Z,0
2022-07-28T05:02:00.558Z,0
2022-07-28T05:03:00.315Z,0
2022-07-28T05:04:00.702Z,0.15833333333333333
2022-07-28T05:05:00.466Z,0
2022-07-28T05:06:00.303Z,0.23888888888888887
2022-07-28T05:06:59.882Z,0
2022-07-28T05:07:59.585Z,0.23888888888888887
2022-07-28T05:09:01.257Z,0.23055555555555554
2022-07-28T05:10:01.032Z,0.19999999999999998
2022-07-28T05:11:00.689Z,0.11944444444444444
2022-07-28T05:12:00.460Z,0.24722222222222223
2022-07-28T05:13:00.153Z,0.21944444444444444
2022-07-28T05:13:59.812Z,0.23888888888888887
2022-07-28T05:15:02.846Z,0.11944444444444444
2022-07-28T05:16:01.512Z,0.19999999999999998
2022-07-28T05:17:00.996Z,0.08055555555555555
2022-07-28T05:18:00.940Z,0.11944444444444444
2022-07-28T05:19:00.715Z,0.03888888888888889
2022-07-28T05:20:00.505Z,0.07222222222222223
2022-07-28T05:21:01.426Z,0.23888888888888887
2022-07-28T05:22:00.626Z,0
2022-07-28T05:23:00.249Z,0.15833333333333333
2022-07-28T05:23:59.902Z,0.11944444444444444
2022-07-28T05:24:59.594Z,0.19999999999999998
2022-07-28T05:26:02.396Z,0.26666666666666666
2022-07-28T05:27:01.037Z,0.08055555555555555
2022-07-28T05:28:00.683Z,0.35833333333333334
2022-07-28T05:29:00.685Z,0.23055555555555554
2022-07-28T05:30:00.870Z,0.23888888888888887
2022-07-28T05:31:00.896Z,0.19999999999999998
2022-07-28T05:32:03.955Z,0.2777777777777778
2022-07-28T05:33:02.421Z,0.35833333333333334
2022-07-28T05:34:00.686Z,0.2777777777777778
2022-07-28T05:35:00.427Z,0.2777777777777778
2022-07-28T05:36:00.183Z,0.23888888888888887
2022-07-28T05:36:59.915Z,0.25833333333333336
2022-07-28T05:38:00.044Z,0.19999999999999998
2022-07-28T05:38:59.796Z,0.15833333333333333
2022-07-28T05:40:02.871Z,0.20833333333333331
2022-07-28T05:41:00.929Z,0.19999999999999998
2022-07-28T05:42:00.616Z,0.1527777777777778
2022-07-28T05:43:00.301Z,0.19999999999999998
2022-07-28T05:43:59.942Z,0.18333333333333335
2022-07-28T05:44:59.588Z,0.15833333333333333
2022-07-28T05:46:01.486Z,0.43333333333333335
2022-07-28T05:47:00.882Z,0.35833333333333334
2022-07-28T05:48:00.818Z,0.6361111111111111
2022-07-28T05:49:00.538Z,0.14722222222222223
2022-07-28T05:50:00.817Z,0.5166666666666667
2022-07-28T05:51:00.494Z,0.25833333333333336
2022-07-28T05:52:00.119Z,0.31666666666666665
2022-07-28T05:52:59.840Z,0.31666666666666665
2022-07-28T05:54:01.843Z,0.24722222222222223
2022-07-28T05:55:03.150Z,0.18888888888888888
2022-07-28T05:56:02.121Z,0.16666666666666666
2022-07-28T05:57:00.940Z,0.31666666666666665
2022-07-28T05:58:00.563Z,0.25
2022-07-28T05:59:04.613Z,0.20833333333333331
2022-07-28T06:00:02.557Z,0.3972222222222222
2022-07-28T06:01:02.494Z,0.4361111111111111
2022-07-28T06:02:01.668Z,0.23888888888888887
2022-07-28T06:03:01.008Z,0.11944444444444444
2022-07-28T06:04:27.852Z,0.5166666666666667
2022-07-28T06:05:00.774Z,0.31666666666666665
2022-07-28T06:06:14.568Z,0.2972222222222222
2022-07-28T06:07:01.619Z,0.19999999999999998
2022-07-28T06:08:01.235Z,0.15833333333333333
2022-07-28T06:09:06.650Z,0.19999999999999998
2022-07-28T06:10:02.160Z,0.5166666666666667
2022-07-28T06:11:02.566Z,0.47777777777777775
2022-07-28T06:12:01.458Z,0.31666666666666665
2022-07-28T06:13:01.364Z,0.11944444444444444
2022-07-28T06:14:10.414Z,0.31666666666666665
2022-07-28T06:15:01.187Z,0.2833333333333333
2022-07-28T06:16:01.294Z,0.31666666666666665
2022-07-28T06:17:00.705Z,0.4388888888888889
2022-07-28T06:18:00.881Z,0.2777777777777778
2022-07-28T06:19:11.345Z,0.23888888888888887
2022-07-28T06:20:00.542Z,0.5166666666666667
2022-07-28T06:21:00.326Z,0.41944444444444445
2022-07-28T06:22:00.195Z,0.4361111111111111
2022-07-28T06:22:59.885Z,0.19999999999999998
2022-07-28T06:24:13.560Z,0.31666666666666665
2022-07-28T06:25:00.622Z,0.11944444444444444
2022-07-28T06:26:00.269Z,0.5194444444444445
2022-07-28T06:26:59.897Z,0.47777777777777775
2022-07-28T06:27:59.613Z,0.19999999999999998
2022-07-28T06:29:17.337Z,0.19444444444444442
2022-07-28T06:30:03.001Z,0.28055555555555556
2022-07-28T06:31:01.383Z,0.3972222222222222
2022-07-28T06:32:01.222Z,0.23888888888888887
2022-07-28T06:33:00.977Z,0.31666666666666665
2022-07-28T06:34:00.660Z,0.15833333333333333
2022-07-28T06:35:00.397Z,0.11944444444444444
2022-07-28T06:36:00.100Z,0.06944444444444445
2022-07-28T06:36:59.774Z,0.03888888888888889
2022-07-28T06:38:01.652Z,0.15833333333333333
2022-07-28T06:39:01.527Z,0.25833333333333336
2022-07-28T06:40:01.081Z,0.18055555555555555
2022-07-28T06:41:00.823Z,0.11944444444444444
2022-07-28T06:42:00.720Z,0.7555555555555555
2022-07-28T06:43:00.460Z,0.35833333333333334
2022-07-28T06:44:00.312Z,0.25833333333333336
2022-07-28T06:45:01.198Z,0.35833333333333334
2022-07-28T06:46:00.970Z,0.2777777777777778
2022-07-28T06:47:01.013Z,0.03888888888888889
2022-07-28T06:48:00.755Z,0.08055555555555555
2022-07-28T06:49:00.569Z,0.31666666666666665
2022-07-28T06:50:01.222Z,0.2777777777777778
2022-07-28T06:51:01.006Z,0.15833333333333333
2022-07-28T06:52:00.678Z,0.575
2022-07-28T06:53:00.338Z,0.15833333333333333
2022-07-28T06:54:00.099Z,0.33888888888888885
2022-07-28T06:54:59.795Z,0.03888888888888889
2022-07-28T06:56:01.693Z,0.2777777777777778
2022-07-28T06:57:01.067Z,0.2777777777777778
2022-07-28T06:58:00.724Z,0.3972222222222222
2022-07-28T06:59:00.790Z,0.075
2022-07-28T07:00:00.586Z,0.7138888888888888
2022-07-28T07:01:00.926Z,0.31666666666666665
2022-07-28T07:02:00.958Z,0.4861111111111111
2022-07-28T07:03:01.320Z,0.6166666666666667
2022-07-28T07:04:00.733Z,0.31666666666666665
2022-07-28T07:05:00.585Z,0.17777777777777778
2022-07-28T07:06:00.269Z,0.35833333333333334
2022-07-28T07:06:59.971Z,0.15833333333333333
2022-07-28T07:07:59.992Z,0.5555555555555556
2022-07-28T07:08:59.950Z,0.35833333333333334
2022-07-28T07:09:59.837Z,0.4361111111111111
2022-07-28T07:11:02.987Z,0.6361111111111111
2022-07-28T07:12:00.645Z,0.5166666666666667
2022-07-28T07:13:00.621Z,0.15833333333333333
2022-07-28T07:14:02.587Z,0.5972222222222222
2022-07-28T07:15:01.318Z,0.7138888888888888
2022-07-28T07:16:01.082Z,0.35833333333333334
2022-07-28T07:17:00.937Z,0.6361111111111111
2022-07-28T07:18:00.696Z,0
2022-07-28T07:19:00.538Z,0.5166666666666667
2022-07-28T07:20:02.298Z,0.7555555555555555
2022-07-28T07:21:00.869Z,0.19999999999999998
2022-07-28T07:22:00.580Z,0.2777777777777778
2022-07-28T07:23:00.238Z,0.675
2022-07-28T07:24:00.091Z,0.35833333333333334
2022-07-28T07:24:59.837Z,0.1388888888888889
2022-07-28T07:26:02.466Z,0.05833333333333333
2022-07-28T07:27:02.489Z,1.027777777777778
2022-07-28T07:28:01.187Z,0.08055555555555555
2022-07-28T07:29:01.006Z,0.4361111111111111
2022-07-28T07:30:00.693Z,0
2022-07-28T07:31:00.479Z,0.19999999999999998
2022-07-28T07:32:00.326Z,0.2777777777777778
2022-07-28T07:33:00.032Z,0.23888888888888887
2022-07-28T07:33:59.701Z,0.2777777777777778
2022-07-28T07:35:01.648Z,0.4666666666666666
2022-07-28T07:36:01.399Z,0.5555555555555556
2022-07-28T07:37:00.786Z,0.5972222222222222
2022-07-28T07:38:00.464Z,0.2722222222222222
2022-07-28T07:39:00.132Z,0.35833333333333334
2022-07-28T07:39:59.867Z,0.41944444444444445
2022-07-28T07:40:59.573Z,0.31666666666666665
2022-07-28T07:42:02.181Z,0.31666666666666665
2022-07-28T07:43:01.496Z,0.17777777777777778
2022-07-28T07:44:00.957Z,0
2022-07-28T07:45:00.734Z,0.022222222222222223
2022-07-28T07:46:00.433Z,0.24722222222222223
2022-07-28T07:47:00.330Z,0.3972222222222222
2022-07-28T07:48:00.137Z,0.7944444444444444
2022-07-28T07:48:59.936Z,0.31388888888888883
2022-07-28T07:50:04.994Z,0.07222222222222223
2022-07-28T07:51:00.889Z,0.1388888888888889
2022-07-28T07:52:00.703Z,0.35833333333333334
2022-07-28T07:53:00.345Z,0.6361111111111111
2022-07-28T07:54:00.064Z,0.5166666666666667
2022-07-28T07:55:07.925Z,0.9944444444444445
2022-07-28T07:56:00.775Z,0.47777777777777775
2022-07-28T07:57:00.507Z,0.5972222222222222
2022-07-28T07:58:00.196Z,0.15833333333333333
2022-07-28T07:59:00.146Z,0.42777777777777776
2022-07-28T08:00:28.081Z,0.15833333333333333
2022-07-28T08:01:01.022Z,0.14166666666666666
2022-07-28T08:02:00.923Z,0.5416666666666666
2022-07-28T08:03:00.729Z,0.5166666666666667
2022-07-28T08:04:00.696Z,0
2022-07-28T08:05:16.390Z,0.5166666666666667
2022-07-28T08:06:01.113Z,0.23888888888888887
2022-07-28T08:07:00.876Z,0.3333333333333333
2022-07-28T08:08:00.593Z,0.4083333333333333
2022-07-28T08:09:00.285Z,0.11944444444444444
2022-07-28T08:09:59.955Z,0.47777777777777775
2022-07-28T08:10:59.665Z,0.8250000000000001
2022-07-28T08:12:02.192Z,1.0138888888888888
2022-07-28T08:13:00.634Z,0.22777777777777775
2022-07-28T08:14:00.400Z,0.5166666666666667
2022-07-28T08:15:00.124Z,0.47777777777777775
2022-07-28T08:16:00.662Z,0.2777777777777778
2022-07-28T08:17:00.410Z,0.31666666666666665
2022-07-28T08:18:00.409Z,0.7555555555555555
2022-07-28T08:19:00.049Z,0.11944444444444444
2022-07-28T08:19:59.827Z,0.2777777777777778
2022-07-28T08:21:01.863Z,0.5166666666666667
2022-07-28T08:22:00.872Z,0.5972222222222222
2022-07-28T08:23:00.648Z,0
2022-07-28T08:24:00.527Z,0.11944444444444444
2022-07-28T08:25:00.209Z,0.5972222222222222
2022-07-28T08:25:59.931Z,0.7611111111111112
2022-07-28T08:26:59.673Z,0.31388888888888883
2022-07-28T08:28:02.256Z,0.31666666666666665
2022-07-28T08:29:02.257Z,0.47777777777777775
2022-07-28T08:30:00.607Z,0.6361111111111111
2022-07-28T08:31:00.531Z,0.19722222222222222
2022-07-28T08:32:00.198Z,0.27499999999999997
2022-07-28T08:32:59.911Z,0.47777777777777775
2022-07-28T08:33:59.608Z,0.5555555555555556
2022-07-28T08:35:30.454Z,0.5555555555555556
2022-07-28T08:36:01.628Z,1.1333333333333333
2022-07-28T08:37:00.883Z,0.5972222222222222
2022-07-28T08:38:00.775Z,0.7944444444444444
2022-07-28T08:39:00.509Z,0.5166666666666667
2022-07-28T08:40:00.176Z,0.35833333333333334
2022-07-28T08:40:59.841Z,0.2777777777777778
2022-07-28T08:42:01.606Z,0.2333333333333333
2022-07-28T08:43:01.566Z,0.2777777777777778
2022-07-28T08:44:02.630Z,0.40555555555555556
2022-07-28T08:45:02.269Z,0.3972222222222222
2022-07-28T08:46:02.906Z,0.5888888888888889
2022-07-28T08:47:01.206Z,0.4361111111111111
2022-07-28T08:48:09.794Z,0.47777777777777775
2022-07-28T08:49:01.079Z,0.586111111111111
2022-07-28T08:50:00.817Z,0.9722222222222222
2022-07-28T08:51:00.538Z,0.736111111111111
2022-07-28T08:52:00.277Z,0.8333333333333333
2022-07-28T08:52:59.893Z,0.6027777777777777
2022-07-28T08:53:59.638Z,0.35833333333333334
2022-07-28T08:55:01.292Z,0.3972222222222222
2022-07-28T08:56:00.985Z,0.21944444444444444
2022-07-28T08:57:00.766Z,0.23888888888888887
2022-07-28T08:58:00.698Z,0.47777777777777775
2022-07-28T08:59:00.603Z,0.5555555555555556
2022-07-28T09:00:00.875Z,0.23888888888888887
2022-07-28T09:01:01.678Z,0.6305555555555555
2022-07-28T09:02:00.934Z,0.31666666666666665
2022-07-28T09:03:00.891Z,0.23888888888888887
2022-07-28T09:04:00.621Z,0.19999999999999998
2022-07-28T09:05:00.697Z,0
2022-07-28T09:06:00.376Z,0.44722222222222224
2022-07-28T09:07:00.046Z,0.31666666666666665
2022-07-28T09:07:59.692Z,0.7944444444444444
2022-07-28T09:09:02.138Z,0.15833333333333333
2022-07-28T09:10:00.670Z,0.3972222222222222
2022-07-28T09:11:00.880Z,0.33055555555555555
2022-07-28T09:12:00.667Z,0.875
2022-07-28T09:13:00.400Z,0.7138888888888888
2022-07-28T09:14:00.113Z,1.1916666666666667
2022-07-28T09:14:59.986Z,0.23888888888888887
2022-07-28T09:15:59.796Z,0.20555555555555555
2022-07-28T09:17:02.107Z,0.35833333333333334
2022-07-28T09:18:01.043Z,0.5111111111111111
2022-07-28T09:19:00.768Z,0.225
2022-07-28T09:20:00.555Z,1.0333333333333334
2022-07-28T09:21:00.348Z,0.6388888888888888
2022-07-28T09:22:00.283Z,0.2777777777777778
2022-07-28T09:23:00.050Z,0.3972222222222222
2022-07-28T09:23:59.766Z,0.31388888888888883
2022-07-28T09:25:01.450Z,0.6361111111111111
2022-07-28T09:26:01.498Z,0.4361111111111111
2022-07-28T09:27:02.269Z,1.0722222222222222
2022-07-28T09:28:01.313Z,0.3972222222222222
2022-07-28T09:29:01.106Z,0.11944444444444444
2022-07-28T09:30:00.805Z,0.19999999999999998
2022-07-28T09:31:03.786Z,0.23888888888888887
2022-07-28T09:32:03.016Z,0.3361111111111111
2022-07-28T09:33:02.631Z,0.09999999999999999
2022-07-28T09:34:01.512Z,0.47777777777777775
2022-07-28T09:35:01.187Z,0.3972222222222222
2022-07-28T09:36:04.008Z,0.5972222222222222
2022-07-28T09:37:01.076Z,0.44166666666666665
2022-07-28T09:38:00.765Z,0.7555555555555555
2022-07-28T09:39:00.458Z,0.4361111111111111
2022-07-28T09:40:03.805Z,0.8166666666666667
2022-07-28T09:41:04.329Z,1.0333333333333334
2022-07-28T09:42:02.346Z,0.675
2022-07-28T09:43:01.010Z,0.875
2022-07-28T09:44:00.873Z,0.3972222222222222
2022-07-28T09:45:21.928Z,0.7944444444444444
2022-07-28T09:46:06.742Z,0.9527777777777778
2022-07-28T09:47:02.614Z,0.9944444444444445
2022-07-28T09:48:03.073Z,0.6722222222222222
2022-07-28T09:49:02.847Z,0.6666666666666666
2022-07-28T09:50:00.815Z,0.31666666666666665
2022-07-28T09:51:08.485Z,0.4361111111111111
2022-07-28T09:52:00.829Z,0.31666666666666665
2022-07-28T09:53:01.566Z,0.23888888888888887
2022-07-28T09:54:00.748Z,0.875
2022-07-28T09:55:00.396Z,0.9138888888888889
2022-07-28T09:56:11.921Z,0.8333333333333333
2022-07-28T09:57:00.898Z,0.24166666666666667
2022-07-28T09:58:00.647Z,0.23888888888888887
2022-07-28T09:59:00.585Z,0.6361111111111111
2022-07-28T10:00:02.299Z,0.19999999999999998
2022-07-28T10:01:13.841Z,0.8333333333333333
2022-07-28T10:02:02.450Z,0.875
2022-07-28T10:03:00.712Z,0.19999999999999998
2022-07-28T10:04:02.687Z,0.47777777777777775
2022-07-28T10:05:02.762Z,0.7861111111111111
2022-07-28T10:06:00.726Z,0.23888888888888887
2022-07-28T10:07:00.435Z,0.31666666666666665
2022-07-28T10:08:00.604Z,0.675
2022-07-28T10:09:00.261Z,0.5972222222222222
2022-07-28T10:09:59.943Z,1.2333333333333334
2022-07-28T10:10:59.740Z,0.4361111111111111
2022-07-28T10:12:02.250Z,0
2022-07-28T10:13:01.382Z,0.15833333333333333
2022-07-28T10:14:00.787Z,0
2022-07-28T10:15:00.746Z,0.2777777777777778
2022-07-28T10:16:00.443Z,0.3972222222222222
2022-07-28T10:17:05.652Z,0.8555555555555555
2022-07-28T10:18:01.433Z,0.8333333333333333
2022-07-28T10:19:00.795Z,0.8138888888888889
2022-07-28T10:20:00.520Z,0.21944444444444444
2022-07-28T10:21:00.248Z,0.9944444444444445
2022-07-28T10:21:59.863Z,0.47777777777777775
2022-07-28T10:22:59.622Z,0.47777777777777775
2022-07-28T10:24:01.392Z,1.6277777777777778
2022-07-28T10:25:01.289Z,1.0722222222222222
2022-07-28T10:26:01.298Z,1.152777777777778
2022-07-28T10:27:00.971Z,0.8333333333333333
2022-07-28T10:28:00.618Z,0.47777777777777775